Time;durP1;ratioP1;P1;durP2;ratioP2;P2;SDS_P1;SDS_P2;PMS_P1;PMS_P2;Temp;Humidity;BMP_temperature;BMP_pressure;BME280_temperature;BME280_humidity;BME280_pressure;Samples;Min_cycle;Max_cycle;Signal;HPM_P1;HPM_P2
2023/01/30 00:00:07;;;;;;;8.82;4.03;;;6.50;99.90;;;;;;5055415;28;20068;-47
2023/01/30 00:02:34;;;;;;;8.38;4.05;;;6.50;99.90;;;;;;5055282;28;20045;-55
2023/01/30 00:05:00;;;;;;;5.93;3.60;;;6.50;99.90;;;;;;5054939;28;20037;-54
2023/01/30 00:07:27;;;;;;;7.55;3.90;;;6.50;99.90;;;;;;5054878;28;20487;-51
2023/01/30 00:09:54;;;;;;;7.60;3.63;;;6.50;99.90;;;;;;5054963;28;20534;-48
2023/01/30 00:12:21;;;;;;;8.30;4.00;;;6.60;99.90;;;;;;5055019;28;20048;-53
2023/01/30 00:14:47;;;;;;;6.55;3.15;;;6.50;99.90;;;;;;5054533;28;20045;-48
2023/01/30 00:17:14;;;;;;;8.32;3.72;;;6.60;99.90;;;;;;5054446;28;20103;-51
2023/01/30 00:19:41;;;;;;;9.02;5.68;;;6.60;99.90;;;;;;5054534;28;20045;-48
2023/01/30 00:22:07;;;;;;;6.85;3.92;;;6.60;99.90;;;;;;5054316;28;20040;-50
2023/01/30 00:24:34;;;;;;;7.88;4.47;;;6.60;99.90;;;;;;5054957;28;20041;-50
2023/01/30 00:27:01;;;;;;;7.20;3.20;;;6.60;99.90;;;;;;5054498;28;20068;-54
2023/01/30 00:29:27;;;;;;;5.70;3.03;;;6.60;99.90;;;;;;5053284;28;20103;-50
2023/01/30 00:31:54;;;;;;;7.50;3.10;;;6.60;99.90;;;;;;5053081;28;20041;-49
2023/01/30 00:34:21;;;;;;;5.63;3.00;;;6.60;99.90;;;;;;5054305;28;20036;-47
2023/01/30 00:36:48;;;;;;;6.68;3.22;;;6.60;99.90;;;;;;5036188;28;20049;-53
2023/01/30 00:39:31;;;;;;;8.07;3.00;;;6.60;99.90;;;;;;5054518;28;20045;-50
2023/01/30 00:47:31;;;;;;;7.63;3.40;;;6.70;99.90;;;;;;5054297;28;20044;-52
2023/01/30 00:49:58;;;;;;;6.65;2.78;;;6.70;99.90;;;;;;5054159;28;20041;-54
2023/01/30 00:52:24;;;;;;;12.93;4.32;;;6.80;99.90;;;;;;5052625;28;20048;-52
2023/01/30 00:54:51;;;;;;;7.53;2.70;;;6.80;99.90;;;;;;5050858;28;20045;-51
2023/01/30 00:57:18;;;;;;;9.80;2.97;;;6.80;99.90;;;;;;5043365;28;20107;-52
2023/01/30 00:59:45;;;;;;;4.53;2.95;;;6.90;99.90;;;;;;5039770;28;20117;-50
2023/01/30 01:02:11;;;;;;;6.75;3.00;;;6.90;99.90;;;;;;5041145;28;20037;-51
2023/01/30 01:04:44;;;;;;;4.20;2.58;;;6.90;99.90;;;;;;5033945;28;20036;-49
2023/01/30 01:07:11;;;;;;;4.65;2.30;;;6.90;99.90;;;;;;5033525;28;20038;-48
2023/01/30 01:09:37;;;;;;;6.90;2.30;;;7.00;99.90;;;;;;5049056;28;20111;-51
2023/01/30 01:12:04;;;;;;;4.10;2.40;;;7.00;99.90;;;;;;5033463;28;20080;-54
2023/01/30 01:14:31;;;;;;;6.00;2.40;;;7.00;99.90;;;;;;5048616;28;20084;-49
2023/01/30 01:16:58;;;;;;;4.50;2.53;;;7.10;99.90;;;;;;5032549;28;20049;-50
2023/01/30 01:19:25;;;;;;;8.18;2.47;;;7.10;99.90;;;;;;5033976;28;20062;-48
2023/01/30 01:21:52;;;;;;;4.10;2.00;;;7.10;99.90;;;;;;5033643;28;20044;-52
2023/01/30 01:24:18;;;;;;;8.82;2.42;;;7.10;99.90;;;;;;5033717;28;20554;-54
2023/01/30 01:26:45;;;;;;;5.95;2.45;;;7.10;99.90;;;;;;5033460;28;20045;-52
2023/01/30 01:29:12;;;;;;;7.95;2.60;;;7.10;99.90;;;;;;5049343;28;20388;-49
2023/01/30 01:31:39;;;;;;;9.23;2.20;;;7.00;99.90;;;;;;5048956;28;20512;-50
2023/01/30 01:34:06;;;;;;;6.82;2.38;;;7.00;99.90;;;;;;5033499;28;20104;-47
2023/01/30 01:36:32;;;;;;;6.93;2.35;;;7.00;99.90;;;;;;5033527;28;20037;-48
2023/01/30 01:39:18;;;;;;;5.63;2.35;;;7.00;99.90;;;;;;5033692;28;20067;-51
2023/01/30 01:41:48;;;;;;;9.63;2.75;;;7.10;99.90;;;;;;5033563;28;20448;-48
2023/01/30 01:44:15;;;;;;;6.85;2.38;;;7.10;99.90;;;;;;5033646;28;20049;-52
2023/01/30 01:46:43;;;;;;;4.78;2.00;;;7.10;99.90;;;;;;5048383;28;20049;-54
2023/01/30 01:49:09;;;;;;;7.10;2.60;;;7.10;99.90;;;;;;5037359;28;20041;-53
2023/01/30 01:51:36;;;;;;;8.45;2.30;;;7.20;99.90;;;;;;5037550;28;20475;-52
2023/01/30 01:54:03;;;;;;;8.43;2.50;;;7.20;99.90;;;;;;5036723;28;20520;-51
2023/01/30 01:56:30;;;;;;;9.27;2.33;;;7.10;99.90;;;;;;5037600;28;20049;-52
2023/01/30 01:58:56;;;;;;;8.77;2.53;;;7.10;99.90;;;;;;5036675;28;20042;-49
2023/01/30 02:01:23;;;;;;;7.15;1.95;;;7.10;99.90;;;;;;5037406;28;20041;-51
2023/01/30 02:03:51;;;;;;;6.57;2.17;;;7.10;99.90;;;;;;5053091;28;20401;-48
2023/01/30 02:06:18;;;;;;;8.52;2.70;;;7.10;99.90;;;;;;5037167;28;20057;-54
2023/01/30 02:08:45;;;;;;;8.43;2.10;;;7.10;99.90;;;;;;5052753;28;20044;-53
2023/01/30 02:11:12;;;;;;;7.85;2.92;;;7.10;99.90;;;;;;5052413;28;20044;-51
2023/01/30 02:13:38;;;;;;;8.95;2.20;;;7.10;99.90;;;;;;5036871;28;20049;-55
2023/01/30 02:16:05;;;;;;;8.00;2.20;;;7.10;99.90;;;;;;5052538;28;20436;-51
2023/01/30 02:18:32;;;;;;;7.35;2.35;;;7.10;99.90;;;;;;5052309;28;20042;-53
2023/01/30 02:20:58;;;;;;;10.20;2.30;;;7.10;99.90;;;;;;5037257;28;20469;-51
2023/01/30 02:23:25;;;;;;;8.32;2.45;;;7.10;99.90;;;;;;5052055;28;20432;-51
2023/01/30 02:25:52;;;;;;;8.98;2.53;;;7.10;99.90;;;;;;5035269;28;20136;-49
2023/01/30 02:28:21;;;;;;;5.85;2.17;;;7.10;99.90;;;;;;5037040;28;20041;-53
2023/01/30 02:30:48;;;;;;;8.13;2.50;;;7.10;99.90;;;;;;5036750;28;20457;-52
2023/01/30 02:33:15;;;;;;;6.85;2.35;;;7.10;99.90;;;;;;5052315;28;20057;-54
2023/01/30 02:35:42;;;;;;;8.30;2.10;;;7.10;99.90;;;;;;5052261;28;20088;-48
2023/01/30 02:38:08;;;;;;;9.32;2.42;;;7.10;99.90;;;;;;5036429;28;20053;-51
2023/01/30 02:40:35;;;;;;;7.00;1.95;;;7.10;99.90;;;;;;5051969;28;20475;-54
2023/01/30 02:43:02;;;;;;;8.07;3.65;;;7.10;99.90;;;;;;5052152;28;20045;-52
2023/01/30 02:45:29;;;;;;;7.00;2.03;;;7.10;99.90;;;;;;5036547;28;20056;-53
2023/01/30 02:47:56;;;;;;;6.38;2.20;;;7.10;99.90;;;;;;5052174;28;20091;-52
2023/01/30 02:50:22;;;;;;;6.60;2.15;;;7.10;99.90;;;;;;5036507;28;20476;-50
2023/01/30 02:52:49;;;;;;;8.63;3.05;;;7.10;99.90;;;;;;5051725;28;20050;-48
2023/01/30 02:55:16;;;;;;;7.45;2.08;;;7.20;99.90;;;;;;5051798;28;20045;-49
2023/01/30 02:57:43;;;;;;;6.72;2.13;;;7.20;99.90;;;;;;5051736;28;20393;-55
2023/01/30 03:00:10;;;;;;;6.10;2.17;;;7.30;99.90;;;;;;5034996;28;20054;-56
2023/01/30 03:02:37;;;;;;;8.13;2.25;;;7.30;99.90;;;;;;5051668;28;20054;-54
2023/01/30 03:05:03;;;;;;;9.10;2.15;;;7.40;99.90;;;;;;5051678;28;20042;-55
2023/01/30 03:07:31;;;;;;;7.20;1.77;;;7.40;99.90;;;;;;5051416;28;20052;-56
2023/01/30 03:09:57;;;;;;;6.03;1.90;;;7.40;99.90;;;;;;5051659;28;20045;-52
2023/01/30 03:12:25;;;;;;;12.63;2.03;;;7.50;99.90;;;;;;5051692;28;20053;-54
2023/01/30 03:14:52;;;;;;;6.72;2.30;;;7.50;99.90;;;;;;5051246;28;20038;-56
2023/01/30 03:17:19;;;;;;;7.50;1.92;;;7.50;99.90;;;;;;5035723;28;20492;-53
2023/01/30 03:19:45;;;;;;;7.80;2.00;;;7.50;99.90;;;;;;5034740;28;20045;-53
2023/01/30 03:22:14;;;;;;;9.23;2.00;;;7.50;99.90;;;;;;5050952;28;20422;-52
2023/01/30 03:24:42;;;;;;;9.73;2.40;;;7.50;99.90;;;;;;5051071;28;20432;-53
2023/01/30 03:27:09;;;;;;;6.18;1.77;;;7.50;99.90;;;;;;5034506;28;20061;-56
2023/01/30 03:29:36;;;;;;;9.60;1.85;;;7.50;99.90;;;;;;5051159;28;20044;-51
2023/01/30 03:32:04;;;;;;;11.30;2.20;;;7.50;99.90;;;;;;5050999;28;20056;-47
2023/01/30 03:34:31;;;;;;;8.18;2.30;;;7.50;99.90;;;;;;5034636;28;20045;-50
2023/01/30 03:36:58;;;;;;;9.95;2.08;;;7.50;99.90;;;;;;5051328;28;20512;-54
2023/01/30 03:39:25;;;;;;;9.05;2.47;;;7.50;99.90;;;;;;5050967;28;20485;-53
2023/01/30 03:41:52;;;;;;;11.25;2.53;;;7.50;99.90;;;;;;5051167;28;20507;-51
2023/01/30 03:44:20;;;;;;;9.38;2.05;;;7.50;99.90;;;;;;5050582;28;20084;-51
2023/01/30 03:46:47;;;;;;;10.05;2.50;;;7.40;99.90;;;;;;5035552;28;20369;-48
2023/01/30 03:49:13;;;;;;;10.63;2.67;;;7.40;99.90;;;;;;5034206;28;20099;-50
2023/01/30 03:51:40;;;;;;;12.60;2.10;;;7.30;99.90;;;;;;5051098;28;20064;-52
2023/01/30 03:54:07;;;;;;;8.45;1.90;;;7.40;99.90;;;;;;5050527;28;20037;-48
2023/01/30 03:56:33;;;;;;;8.65;2.22;;;7.30;99.90;;;;;;5050484;28;20045;-52
2023/01/30 03:59:00;;;;;;;12.38;2.92;;;7.30;99.90;;;;;;5050515;28;20124;-49
2023/01/30 04:01:42;;;;;;;9.88;2.22;;;7.30;99.90;;;;;;5050701;28;20045;-55
2023/01/30 04:04:08;;;;;;;8.75;2.38;;;7.30;99.90;;;;;;5033643;28;20045;-53
2023/01/30 04:06:36;;;;;;;10.95;2.72;;;7.30;99.90;;;;;;5050374;28;20132;-49
2023/01/30 04:09:03;;;;;;;8.52;2.33;;;7.30;99.90;;;;;;5050344;28;20087;-52
2023/01/30 04:11:38;;;;;;;14.57;3.00;;;7.20;99.90;;;;;;5050361;28;20046;-55
2023/01/30 04:14:05;;;;;;;12.93;3.03;;;7.20;99.90;;;;;;5050375;28;20115;-54
2023/01/30 04:16:40;;;;;;;8.50;2.47;;;7.20;99.90;;;;;;5049897;28;20405;-53
2023/01/30 04:19:10;;;;;;;9.73;2.88;;;7.20;99.90;;;;;;5035091;28;20451;-52
2023/01/30 04:21:38;;;;;;;8.10;2.85;;;7.20;99.90;;;;;;5033675;28;20064;-51
2023/01/30 04:24:05;;;;;;;10.93;3.00;;;7.20;99.90;;;;;;5034892;28;20144;-47
2023/01/30 04:26:32;;;;;;;6.55;2.40;;;7.20;99.90;;;;;;5050172;28;20045;-49
2023/01/30 04:29:00;;;;;;;7.38;2.55;;;7.20;99.90;;;;;;5049886;28;20041;-51
2023/01/30 04:31:28;;;;;;;8.68;2.83;;;7.30;99.90;;;;;;5050097;28;20041;-48
2023/01/30 04:34:00;;;;;;;10.57;2.95;;;7.30;99.90;;;;;;5050064;28;20052;-49
2023/01/30 04:36:30;;;;;;;7.78;3.08;;;7.30;99.90;;;;;;5049760;28;20088;-51
2023/01/30 04:38:57;;;;;;;12.93;3.85;;;7.30;99.90;;;;;;5049451;28;20065;-49
2023/01/30 04:41:25;;;;;;;7.53;2.92;;;7.30;99.90;;;;;;5033465;28;20132;-50
2023/01/30 04:43:58;;;;;;;9.30;3.00;;;7.30;99.90;;;;;;5049645;28;20067;-53
2023/01/30 04:46:44;;;;;;;9.57;2.83;;;7.30;99.90;;;;;;5049830;28;20052;-52
2023/01/30 04:49:13;;;;;;;10.10;3.47;;;7.30;99.90;;;;;;5049719;28;20488;-53
2023/01/30 04:51:40;;;;;;;12.43;3.33;;;7.30;99.90;;;;;;5034408;28;20068;-52
2023/01/30 04:54:06;;;;;;;9.60;3.17;;;7.40;99.90;;;;;;5049390;28;20037;-51
2023/01/30 04:56:33;;;;;;;7.93;2.90;;;7.40;99.90;;;;;;5034174;28;20042;-52
2023/01/30 04:59:00;;;;;;;9.00;3.05;;;7.40;99.90;;;;;;5049717;28;20053;-51
2023/01/30 05:01:32;;;;;;;9.13;2.92;;;7.40;99.90;;;;;;5049242;28;20041;-50
2023/01/30 05:03:59;;;;;;;6.80;2.63;;;7.40;99.90;;;;;;5049441;28;20132;-51
2023/01/30 05:06:26;;;;;;;8.85;2.80;;;7.40;99.90;;;;;;5034101;28;20077;-52
2023/01/30 05:08:53;;;;;;;9.35;3.08;;;7.40;99.90;;;;;;5033843;28;20064;-50
2023/01/30 05:11:19;;;;;;;10.32;3.08;;;7.40;99.90;;;;;;5033665;28;20534;-50
2023/01/30 05:13:46;;;;;;;7.32;2.67;;;7.40;99.90;;;;;;5033875;28;20042;-53
2023/01/30 05:16:13;;;;;;;10.63;2.95;;;7.30;99.90;;;;;;5033394;28;20045;-51
2023/01/30 05:18:40;;;;;;;13.10;3.28;;;7.30;99.90;;;;;;5033866;28;20088;-48
2023/01/30 05:21:06;;;;;;;10.70;3.05;;;7.30;99.90;;;;;;5034000;28;20091;-52
2023/01/30 05:23:33;;;;;;;8.05;2.80;;;7.30;99.90;;;;;;5032763;28;20049;-51
2023/01/30 05:26:00;;;;;;;10.55;3.00;;;7.30;99.90;;;;;;5034005;28;20048;-50
2023/01/30 05:28:28;;;;;;;8.27;3.00;;;7.20;99.90;;;;;;5033862;28;20040;-51
2023/01/30 05:30:54;;;;;;;7.80;3.10;;;7.20;99.90;;;;;;5033713;28;20041;-56
2023/01/30 05:33:21;;;;;;;9.75;2.95;;;7.20;99.90;;;;;;5049244;28;20408;-51
2023/01/30 05:35:48;;;;;;;10.60;2.83;;;7.20;99.90;;;;;;5033609;28;20358;-53
2023/01/30 05:38:15;;;;;;;9.38;2.88;;;7.20;99.90;;;;;;5033549;28;20382;-53
2023/01/30 05:40:42;;;;;;;11.25;3.22;;;7.20;99.90;;;;;;5033896;28;20037;-49
2023/01/30 05:43:08;;;;;;;8.90;2.78;;;7.10;99.90;;;;;;5033689;28;20037;-52
2023/01/30 05:45:35;;;;;;;8.13;2.75;;;7.10;99.90;;;;;;5033816;28;20152;-53
2023/01/30 05:48:02;;;;;;;9.00;2.95;;;7.10;99.90;;;;;;5033544;28;20107;-55
2023/01/30 05:50:29;;;;;;;6.95;3.03;;;7.10;99.90;;;;;;5032867;28;20096;-53
2023/01/30 05:52:56;;;;;;;7.60;2.97;;;7.10;99.90;;;;;;5033418;28;20084;-52
2023/01/30 05:55:23;;;;;;;10.75;2.95;;;7.00;99.90;;;;;;5048703;28;20106;-52
2023/01/30 05:57:49;;;;;;;12.18;3.35;;;7.00;99.90;;;;;;5033538;28;20048;-49
2023/01/30 06:00:16;;;;;;;7.13;3.10;;;7.00;99.90;;;;;;5033303;28;20049;-48
2023/01/30 06:02:43;;;;;;;11.73;3.03;;;7.00;99.90;;;;;;5033309;28;20450;-52
2023/01/30 06:05:10;;;;;;;9.90;3.25;;;7.00;99.90;;;;;;5033307;28;20099;-49
2023/01/30 06:07:36;;;;;;;9.18;2.78;;;7.00;99.90;;;;;;5033372;28;20477;-50
2023/01/30 06:10:03;;;;;;;9.40;2.75;;;6.90;99.90;;;;;;5033542;28;20041;-51
2023/01/30 06:12:30;;;;;;;10.90;3.00;;;6.90;99.90;;;;;;5033469;28;20080;-49
2023/01/30 06:14:57;;;;;;;11.25;3.08;;;6.90;99.90;;;;;;5033331;28;20041;-52
2023/01/30 06:17:23;;;;;;;7.10;3.35;;;7.00;99.90;;;;;;5032744;28;20428;-52
2023/01/30 06:19:50;;;;;;;9.25;3.40;;;7.00;99.90;;;;;;5033295;28;20099;-52
2023/01/30 06:22:17;;;;;;;12.32;3.13;;;7.10;99.90;;;;;;5033428;28;20050;-53
2023/01/30 06:24:44;;;;;;;7.70;2.55;;;7.10;99.90;;;;;;5033180;28;20045;-49
2023/01/30 06:27:13;;;;;;;8.90;2.90;;;7.10;99.90;;;;;;5032924;28;20543;-52
2023/01/30 06:29:39;;;;;;;7.78;2.30;;;7.20;99.90;;;;;;5032019;28;20434;-54
2023/01/30 06:32:08;;;;;;;8.27;2.30;;;7.30;99.90;;;;;;5033343;28;20065;-50
2023/01/30 06:34:35;;;;;;;8.95;2.60;;;7.40;99.90;;;;;;5035657;28;20448;-53
2023/01/30 06:37:01;;;;;;;8.20;2.70;;;7.40;99.90;;;;;;5036557;28;20033;-48
2023/01/30 06:39:28;;;;;;;10.63;2.55;;;7.50;99.90;;;;;;5036590;28;20484;-52
2023/01/30 06:41:55;;;;;;;7.53;2.90;;;7.60;99.90;;;;;;5036572;28;20042;-54
2023/01/30 06:44:22;;;;;;;9.00;3.17;;;7.60;99.90;;;;;;5036627;28;20100;-50
2023/01/30 06:46:48;;;;;;;10.40;3.63;;;7.60;99.90;;;;;;5036542;28;20046;-53
2023/01/30 06:49:15;;;;;;;10.68;3.28;;;7.70;99.90;;;;;;5036581;28;20099;-52
2023/01/30 06:51:42;;;;;;;8.63;3.40;;;7.70;99.90;;;;;;5036483;28;20049;-51
2023/01/30 06:54:09;;;;;;;7.45;2.97;;;7.60;99.90;;;;;;5036412;28;20416;-50
2023/01/30 06:56:35;;;;;;;13.13;3.85;;;7.70;99.90;;;;;;5036300;28;20037;-50
2023/01/30 06:59:02;;;;;;;12.15;3.85;;;7.60;99.90;;;;;;5036137;28;20515;-52
2023/01/30 07:01:29;;;;;;;10.48;3.65;;;7.50;99.90;;;;;;5039980;28;20037;-52
2023/01/30 07:03:56;;;;;;;10.23;3.58;;;7.50;99.90;;;;;;5056499;28;20522;-53
2023/01/30 07:06:22;;;;;;;15.77;3.60;;;7.40;99.90;;;;;;5055705;28;20033;-49
2023/01/30 07:08:49;;;;;;;13.85;3.50;;;7.40;99.90;;;;;;5055901;28;20507;-50
2023/01/30 07:11:16;;;;;;;14.73;4.25;;;7.40;99.90;;;;;;5054638;28;20048;-50
2023/01/30 07:13:43;;;;;;;11.98;4.03;;;7.40;99.90;;;;;;5055644;28;20060;-49
2023/01/30 07:16:09;;;;;;;14.18;3.80;;;7.40;99.90;;;;;;5056002;28;20049;-53
2023/01/30 07:18:36;;;;;;;8.80;3.80;;;7.40;99.90;;;;;;5055902;28;20119;-53
2023/01/30 07:21:03;;;;;;;11.30;3.88;;;7.40;99.90;;;;;;5055824;28;20075;-52
2023/01/30 07:23:30;;;;;;;10.30;3.58;;;7.40;99.90;;;;;;5055478;28;20079;-51
2023/01/30 07:25:56;;;;;;;12.27;3.35;;;7.40;99.90;;;;;;5055715;28;20037;-49
2023/01/30 07:28:23;;;;;;;9.63;3.58;;;7.40;99.90;;;;;;5055883;28;20044;-49
2023/01/30 07:30:51;;;;;;;12.82;4.18;;;7.30;99.90;;;;;;5055607;28;20037;-52
2023/01/30 07:33:19;;;;;;;8.77;3.13;;;7.20;99.90;;;;;;5055283;28;20446;-51
2023/01/30 07:35:46;;;;;;;11.13;3.45;;;7.20;99.90;;;;;;5054090;28;20432;-48
2023/01/30 07:38:12;;;;;;;8.07;2.35;;;7.20;99.90;;;;;;5055222;28;20049;-49
2023/01/30 07:40:39;;;;;;;10.60;2.60;;;7.10;99.90;;;;;;5055372;28;20115;-49
2023/01/30 07:43:06;;;;;;;12.20;2.83;;;7.10;99.90;;;;;;5055603;28;20041;-48
2023/01/30 07:45:33;;;;;;;8.68;2.67;;;7.00;99.90;;;;;;5054519;28;20072;-54
2023/01/30 07:47:59;;;;;;;9.88;2.70;;;7.00;99.90;;;;;;5055511;28;20073;-54
2023/01/30 07:50:26;;;;;;;11.57;2.67;;;6.90;99.90;;;;;;5055050;28;20041;-51
2023/01/30 07:52:53;;;;;;;11.75;2.58;;;6.90;99.90;;;;;;5055285;28;20049;-52
2023/01/30 07:55:20;;;;;;;12.68;2.33;;;6.80;99.90;;;;;;5055113;28;20045;-52
2023/01/30 07:57:47;;;;;;;9.40;2.42;;;6.80;99.90;;;;;;5055239;28;20076;-53
2023/01/30 08:00:14;;;;;;;9.80;2.55;;;6.70;99.90;;;;;;5055302;28;20037;-50
2023/01/30 08:02:40;;;;;;;8.85;2.83;;;6.70;99.90;;;;;;5053523;28;20511;-46
2023/01/30 08:05:07;;;;;;;9.60;1.85;;;6.70;99.90;;;;;;5054905;28;20047;-50
2023/01/30 08:07:34;;;;;;;9.88;2.92;;;6.70;99.90;;;;;;5055034;28;20474;-49
2023/01/30 08:10:01;;;;;;;12.13;2.47;;;6.70;99.90;;;;;;5055106;28;20033;-48
2023/01/30 08:12:28;;;;;;;12.77;2.33;;;6.70;99.90;;;;;;5054489;28;20075;-48
2023/01/30 08:14:54;;;;;;;13.48;2.45;;;6.70;99.90;;;;;;5053815;28;20056;-55
2023/01/30 08:17:21;;;;;;;11.15;2.10;;;6.80;99.90;;;;;;5052390;28;20557;-49
2023/01/30 08:19:48;;;;;;;11.48;2.33;;;6.80;99.90;;;;;;5056045;28;20053;-50
2023/01/30 08:22:15;;;;;;;11.05;2.92;;;6.80;99.90;;;;;;5054352;28;20500;-50
2023/01/30 08:24:42;;;;;;;9.68;2.05;;;6.80;99.90;;;;;;5054056;28;20099;-49
2023/01/30 08:27:09;;;;;;;12.65;2.38;;;6.80;99.90;;;;;;5053388;28;20041;-53
2023/01/30 08:29:35;;;;;;;11.18;2.10;;;6.80;99.90;;;;;;5052737;28;20050;-51
2023/01/30 08:32:02;;;;;;;9.88;2.50;;;6.80;99.90;;;;;;5053671;28;20033;-54
2023/01/30 08:34:29;;;;;;;12.85;2.20;;;6.80;99.90;;;;;;5054021;28;20049;-49
2023/01/30 08:36:55;;;;;;;10.38;2.17;;;6.80;99.90;;;;;;5053950;28;20036;-50
2023/01/30 08:39:22;;;;;;;9.40;2.38;;;6.80;99.90;;;;;;5053013;28;20037;-52
2023/01/30 08:41:49;;;;;;;14.77;2.45;;;6.80;99.90;;;;;;5053813;28;20496;-47
2023/01/30 08:44:16;;;;;;;11.30;2.33;;;6.80;99.90;;;;;;5053629;28;20484;-49
2023/01/30 08:46:43;;;;;;;15.00;2.22;;;6.80;99.90;;;;;;5053680;28;20477;-49
2023/01/30 08:49:09;;;;;;;13.50;2.20;;;6.80;99.90;;;;;;5053841;28;20045;-49
2023/01/30 08:51:36;;;;;;;14.52;2.38;;;6.80;99.90;;;;;;5053862;28;20040;-51
2023/01/30 08:54:03;;;;;;;8.98;2.20;;;6.80;99.90;;;;;;5053767;28;20049;-52
2023/01/30 08:56:30;;;;;;;9.93;2.17;;;6.80;99.90;;;;;;5053797;28;20502;-48
2023/01/30 08:58:56;;;;;;;12.48;2.13;;;6.80;99.90;;;;;;5053490;28;20045;-51
2023/01/30 09:01:23;;;;;;;14.70;2.55;;;6.80;99.90;;;;;;5072612;28;20135;-48
2023/01/30 09:03:50;;;;;;;8.82;2.25;;;6.80;99.90;;;;;;5072781;28;20464;-50
2023/01/30 09:06:17;;;;;;;10.32;3.40;;;6.80;99.90;;;;;;5072454;28;20461;-54
2023/01/30 09:08:43;;;;;;;13.00;2.70;;;6.80;99.90;;;;;;5071628;28;20051;-51
2023/01/30 09:11:11;;;;;;;9.23;2.45;;;6.80;99.90;;;;;;5053463;28;20098;-53
2023/01/30 09:13:42;;;;;;;14.50;3.03;;;6.80;99.90;;;;;;5053238;28;20075;-54
2023/01/30 09:16:09;;;;;;;14.70;3.53;;;6.90;99.90;;;;;;5052561;28;20156;-51
2023/01/30 09:18:36;;;;;;;29.40;3.08;;;6.90;99.90;;;;;;5052886;28;20053;-52
2023/01/30 09:21:03;;;;;;;15.15;2.88;;;6.90;99.90;;;;;;5053335;28;20048;-51
2023/01/30 09:23:29;;;;;;;11.05;2.35;;;6.90;99.90;;;;;;5053265;28;20098;-53
2023/01/30 09:25:56;;;;;;;12.77;2.90;;;6.90;99.90;;;;;;5053223;28;20089;-50
2023/01/30 09:28:23;;;;;;;122.28;14.05;;;6.90;99.90;;;;;;5053028;28;20049;-51
2023/01/30 09:30:50;;;;;;;22.15;3.67;;;6.90;99.90;;;;;;5053098;28;20045;-53
2023/01/30 09:33:19;;;;;;;761.38;81.68;;;7.00;99.90;;;;;;5053023;28;20040;-54
2023/01/30 09:35:45;;;;;;;26.38;6.18;;;7.00;99.90;;;;;;5058743;28;20049;-51
2023/01/30 09:38:12;;;;;;;13.00;3.15;;;7.00;99.90;;;;;;5060229;28;20045;-48
2023/01/30 09:40:39;;;;;;;18.52;2.83;;;7.00;99.90;;;;;;5052727;28;20053;-52
2023/01/30 09:43:05;;;;;;;14.23;2.78;;;7.00;99.90;;;;;;5052775;28;20044;-56
2023/01/30 09:45:32;;;;;;;12.32;3.28;;;7.00;99.90;;;;;;5053272;28;20379;-47
2023/01/30 09:47:59;;;;;;;15.70;2.92;;;7.00;99.90;;;;;;5052902;28;20047;-54
2023/01/30 09:50:27;;;;;;;17.30;3.15;;;7.00;99.90;;;;;;5052641;28;20044;-56
2023/01/30 09:52:55;;;;;;;12.00;2.20;;;7.00;99.90;;;;;;5052962;28;20080;-50
2023/01/30 09:55:22;;;;;;;11.15;2.75;;;7.00;99.90;;;;;;5051683;28;20045;-48
2023/01/30 09:57:48;;;;;;;15.20;2.80;;;7.00;99.90;;;;;;5052985;28;20051;-47
2023/01/30 10:00:15;;;;;;;13.10;2.75;;;7.00;99.90;;;;;;5052563;28;20056;-52
2023/01/30 10:02:42;;;;;;;12.65;2.35;;;7.10;99.90;;;;;;5052895;28;20045;-46
2023/01/30 10:05:09;;;;;;;13.68;2.40;;;7.10;99.90;;;;;;5052538;28;20045;-48
2023/01/30 10:07:36;;;;;;;10.60;2.47;;;7.10;99.90;;;;;;5052826;28;20044;-54
2023/01/30 10:10:03;;;;;;;9.55;2.10;;;7.10;99.90;;;;;;5054892;28;20506;-50
2023/01/30 10:12:30;;;;;;;11.57;2.85;;;7.10;99.90;;;;;;5057051;28;20098;-52
2023/01/30 10:14:56;;;;;;;10.45;2.83;;;7.10;99.90;;;;;;5056438;28;20045;-50
2023/01/30 10:17:23;;;;;;;14.93;2.60;;;7.10;99.90;;;;;;5055626;28;20060;-51
2023/01/30 10:19:50;;;;;;;14.57;2.58;;;7.10;99.90;;;;;;5056368;28;20044;-50
2023/01/30 10:22:17;;;;;;;15.23;3.20;;;7.20;99.90;;;;;;5056446;28;20502;-52
2023/01/30 10:24:44;;;;;;;17.10;3.15;;;7.20;99.90;;;;;;5056323;28;20120;-52
2023/01/30 10:27:10;;;;;;;14.60;2.60;;;7.20;99.90;;;;;;5056032;28;20037;-50
2023/01/30 10:29:37;;;;;;;15.45;3.22;;;7.20;99.90;;;;;;5056328;28;20544;-51
2023/01/30 10:32:04;;;;;;;14.00;2.78;;;7.20;99.90;;;;;;5055133;28;20412;-49
2023/01/30 10:34:31;;;;;;;16.00;3.28;;;7.20;99.90;;;;;;5056298;28;20124;-52
2023/01/30 10:36:58;;;;;;;13.77;3.05;;;7.30;99.90;;;;;;5056201;28;20048;-49
2023/01/30 10:39:25;;;;;;;17.90;3.15;;;7.30;99.90;;;;;;5055862;28;20082;-51
2023/01/30 10:41:51;;;;;;;15.18;2.78;;;7.30;99.90;;;;;;5056018;28;20076;-49
2023/01/30 10:44:18;;;;;;;15.48;3.03;;;7.40;99.90;;;;;;5054882;28;20447;-51
2023/01/30 10:46:45;;;;;;;15.35;2.55;;;7.40;99.90;;;;;;5056047;28;20037;-49
2023/01/30 10:49:14;;;;;;;11.82;3.28;;;7.40;99.90;;;;;;5055898;28;20060;-53
2023/01/30 10:51:41;;;;;;;16.38;3.50;;;7.50;99.90;;;;;;5054433;28;20051;-54
2023/01/30 10:54:08;;;;;;;14.00;3.28;;;7.50;99.90;;;;;;5056039;28;20048;-52
2023/01/30 10:56:34;;;;;;;17.08;3.15;;;7.50;99.90;;;;;;5060173;28;20128;-51
2023/01/30 10:59:01;;;;;;;19.33;3.50;;;7.60;99.90;;;;;;5075025;28;20102;-51
2023/01/30 11:01:28;;;;;;;15.00;3.08;;;7.70;99.90;;;;;;5074712;28;20048;-50
2023/01/30 11:03:55;;;;;;;18.90;4.20;;;7.70;99.90;;;;;;5075058;28;20044;-54
2023/01/30 11:06:22;;;;;;;18.33;4.07;;;7.70;99.90;;;;;;5064654;28;20048;-50
2023/01/30 11:08:49;;;;;;;16.40;3.22;;;7.80;99.90;;;;;;5075103;28;20094;-47
2023/01/30 11:11:16;;;;;;;15.23;2.72;;;7.80;99.90;;;;;;5074632;28;20036;-50
2023/01/30 11:13:42;;;;;;;12.45;2.72;;;7.90;99.90;;;;;;5074857;28;20496;-52
2023/01/30 11:16:10;;;;;;;16.17;2.85;;;7.90;99.90;;;;;;5073308;28;20107;-51
2023/01/30 11:18:37;;;;;;;16.13;3.15;;;7.90;99.90;;;;;;5055530;28;20049;-50
2023/01/30 11:21:23;;;;;;;17.90;3.35;;;7.80;99.90;;;;;;5073483;28;20477;-49
2023/01/30 11:24:07;;;;;;;12.23;2.22;;;7.90;99.90;;;;;;5056929;28;20090;-51
2023/01/30 11:26:34;;;;;;;10.15;2.60;;;7.80;99.90;;;;;;5046378;28;20037;-51
2023/01/30 11:29:12;;;;;;;13.10;2.67;;;7.80;99.90;;;;;;5055138;28;20041;-53
2023/01/30 11:31:39;;;;;;;19.05;3.67;;;7.90;99.90;;;;;;5054958;28;20045;-47
2023/01/30 11:34:07;;;;;;;12.18;2.72;;;7.90;99.90;;;;;;5055321;28;20049;-54
2023/01/30 11:36:34;;;;;;;16.65;3.10;;;7.90;99.90;;;;;;5054938;28;20045;-49
2023/01/30 11:39:01;;;;;;;11.43;2.65;;;7.90;99.90;;;;;;5055151;28;20072;-50
2023/01/30 11:41:28;;;;;;;13.38;2.70;;;7.90;99.90;;;;;;5055035;28;20504;-49
2023/01/30 11:43:55;;;;;;;14.10;2.70;;;7.90;99.90;;;;;;5055075;28;20037;-52
2023/01/30 11:46:21;;;;;;;13.95;2.88;;;7.90;99.90;;;;;;5054786;28;20048;-53
2023/01/30 11:48:48;;;;;;;12.82;3.40;;;7.90;99.90;;;;;;5055071;28;20037;-53
2023/01/30 11:51:35;;;;;;;15.63;2.88;;;7.90;99.90;;;;;;5054855;28;20037;-51
2023/01/30 11:54:02;;;;;;;8.30;3.10;;;8.00;99.90;;;;;;5054855;28;20099;-50
2023/01/30 11:56:29;;;;;;;18.90;2.85;;;7.90;99.90;;;;;;5054875;28;20056;-53
2023/01/30 11:58:57;;;;;;;14.55;2.40;;;8.00;99.90;;;;;;5054135;28;20045;-50
2023/01/30 12:01:24;;;;;;;15.35;3.00;;;8.00;99.90;;;;;;5055039;28;20403;-52
2023/01/30 12:03:51;;;;;;;15.60;2.78;;;8.00;99.90;;;;;;5054087;28;20041;-52
2023/01/30 12:06:17;;;;;;;11.73;2.97;;;8.00;99.90;;;;;;5053254;28;20116;-55
2023/01/30 12:08:44;;;;;;;12.82;2.53;;;8.10;99.90;;;;;;5053320;28;20037;-52
2023/01/30 12:11:11;;;;;;;13.70;2.92;;;8.10;99.90;;;;;;5054518;28;20045;-55
2023/01/30 12:13:38;;;;;;;11.35;2.80;;;8.10;99.90;;;;;;5053672;28;20147;-55
2023/01/30 12:16:04;;;;;;;13.70;2.83;;;8.10;99.90;;;;;;5054509;28;20111;-54
2023/01/30 12:18:31;;;;;;;13.70;3.38;;;8.10;99.90;;;;;;5053999;28;20048;-56
2023/01/30 12:20:58;;;;;;;16.10;3.38;;;8.10;99.90;;;;;;5054213;28;20068;-55
2023/01/30 12:23:25;;;;;;;11.60;2.88;;;8.20;99.90;;;;;;5052960;28;20447;-53
2023/01/30 12:25:51;;;;;;;17.02;3.70;;;8.20;99.90;;;;;;5052986;28;20123;-56
2023/01/30 12:28:18;;;;;;;14.43;2.60;;;8.10;99.90;;;;;;5053252;28;20045;-52
2023/01/30 12:30:45;;;;;;;17.13;3.30;;;8.10;99.90;;;;;;5053114;28;20079;-54
2023/01/30 12:33:14;;;;;;;15.63;3.40;;;8.10;99.90;;;;;;5053047;28;20045;-55
2023/01/30 12:35:41;;;;;;;11.45;2.80;;;8.10;99.90;;;;;;5053392;28;20076;-56
2023/01/30 12:38:08;;;;;;;14.35;2.60;;;8.10;99.90;;;;;;5054175;28;20127;-53
2023/01/30 12:40:35;;;;;;;15.90;3.83;;;8.20;99.90;;;;;;5054166;28;20072;-50
2023/01/30 12:43:02;;;;;;;15.32;3.33;;;8.20;99.90;;;;;;5053878;28;20098;-51
2023/01/30 12:45:29;;;;;;;17.02;3.80;;;8.20;99.90;;;;;;5053837;28;20040;-49
2023/01/30 12:47:55;;;;;;;15.63;2.42;;;8.20;99.90;;;;;;5052649;28;20049;-48
2023/01/30 12:50:22;;;;;;;11.15;2.67;;;8.20;99.90;;;;;;5054057;28;20045;-53
2023/01/30 12:52:49;;;;;;;13.20;2.60;;;8.10;99.90;;;;;;5053819;28;20480;-52
2023/01/30 12:55:15;;;;;;;14.75;3.22;;;8.20;99.90;;;;;;5053929;28;20045;-51
2023/01/30 12:57:42;;;;;;;19.35;4.55;;;8.10;99.90;;;;;;5053578;28;20045;-52